createdAt,value
2022-10-29T00:01:34.366Z,12.40
2022-10-29T00:11:40.265Z,13.70
2022-10-29T00:21:46.041Z,8.80
2022-10-29T00:31:53.501Z,9.60
2022-10-29T00:41:59.235Z,8.70
2022-10-29T00:52:06.344Z,8.90
2022-10-29T01:02:12.219Z,8.60
2022-10-29T01:12:41.581Z,8.50
2022-10-29T01:22:54.661Z,11.00
2022-10-29T01:33:10.724Z,8.60
2022-10-29T01:53:32.608Z,10.40
2022-10-29T02:03:50.120Z,8.90
2022-10-29T02:14:03.320Z,8.50
2022-10-29T02:24:10.379Z,7.70
2022-10-29T02:34:16.270Z,9.40
2022-10-29T02:44:22.131Z,9.70
2022-10-29T02:54:28.072Z,9.30
2022-10-29T03:04:33.684Z,8.20
2022-10-29T03:14:39.295Z,8.00
2022-10-29T03:24:44.903Z,8.90
2022-10-29T03:34:52.642Z,9.60
2022-10-29T03:45:00.276Z,7.70
2022-10-29T03:55:07.337Z,6.20
2022-10-29T04:05:13.118Z,9.70
2022-10-29T04:15:19.148Z,9.40
2022-10-29T04:35:55.546Z,11.10
2022-10-29T04:46:01.725Z,7.10
2022-10-29T04:56:08.198Z,8.90
2022-10-29T05:06:13.995Z,9.80
2022-10-29T05:16:19.704Z,8.00
2022-10-29T05:26:25.594Z,7.20
2022-10-29T05:36:31.367Z,8.30
2022-10-29T05:46:37.028Z,9.00
2022-10-29T05:56:42.635Z,10.10
2022-10-29T06:06:48.788Z,7.50
2022-10-29T06:16:54.531Z,10.00
2022-10-29T06:27:00.107Z,10.40
2022-10-29T06:37:05.797Z,7.60
2022-10-29T06:47:11.463Z,9.40
2022-10-29T06:57:17.129Z,7.60
2022-10-29T07:17:33.587Z,7.20
2022-10-29T07:27:39.329Z,10.00
2022-10-29T07:37:45.029Z,8.40
2022-10-29T07:48:02.700Z,10.30
2022-10-29T07:58:12.167Z,9.50
2022-10-29T08:08:18.706Z,9.80
2022-10-29T08:18:24.434Z,8.80
2022-10-29T08:28:33.188Z,8.00
2022-10-29T08:38:41.443Z,7.40
2022-10-29T08:48:53.714Z,7.70
2022-10-29T08:59:04.527Z,6.60
2022-10-29T09:09:31.332Z,11.20
2022-10-29T09:20:00.369Z,13.40
2022-10-29T09:30:10.675Z,8.50
2022-10-29T09:40:25.608Z,10.80
2022-10-29T09:50:37.002Z,11.20
2022-10-29T10:00:43.006Z,10.00
2022-10-29T10:10:57.189Z,10.20
2022-10-29T10:21:09.562Z,10.60
2022-10-29T10:31:17.662Z,20.40
2022-10-29T10:41:29.620Z,15.20
2022-10-29T10:51:37.881Z,10.40
2022-10-29T11:01:48.613Z,13.60
2022-10-29T11:12:01.583Z,9.90
2022-10-29T11:22:15.049Z,8.10
2022-10-29T11:32:25.218Z,9.60
2022-10-29T11:42:31.450Z,16.90
2022-10-29T11:52:45.793Z,13.80
2022-10-29T12:03:10.681Z,6.70
2022-10-29T12:13:25.332Z,8.00
2022-10-29T12:23:50.542Z,8.60
2022-10-29T12:34:04.536Z,9.10
2022-10-29T12:44:20.585Z,9.20
2022-10-29T12:54:37.979Z,6.40
2022-10-29T13:05:17.285Z,17.60
2022-10-29T13:15:24.376Z,7.50
2022-10-29T13:25:53.528Z,9.00
2022-10-29T13:36:01.060Z,8.80
2022-10-29T13:46:24.900Z,10.60
2022-10-29T13:56:35.933Z,11.20
2022-10-29T14:06:42.652Z,14.20
2022-10-29T14:16:48.468Z,7.20
2022-10-29T14:27:08.754Z,13.80
2022-10-29T14:37:19.411Z,9.80
2022-10-29T14:47:32.281Z,11.50
2022-10-29T14:57:47.035Z,10.60
2022-10-29T15:07:52.928Z,15.40
2022-10-29T15:18:03.184Z,9.20
2022-10-29T15:28:13.349Z,12.10
2022-10-29T15:39:08.889Z,13.20
2022-10-29T15:49:18.563Z,12.20
2022-10-29T15:59:26.965Z,12.00
2022-10-29T16:09:32.789Z,13.30
2022-10-29T16:19:38.412Z,14.70
2022-10-29T16:29:44.394Z,12.20
2022-10-29T16:39:50.006Z,17.60
2022-10-29T16:49:55.845Z,13.50
2022-10-29T17:00:01.628Z,18.10
2022-10-29T17:10:08.699Z,18.30
2022-10-29T17:20:14.575Z,20.10
2022-10-29T17:30:20.561Z,18.40
2022-10-29T17:40:26.309Z,22.50
2022-10-29T17:50:32.039Z,19.60
2022-10-29T18:00:37.709Z,22.20
2022-10-29T18:10:43.319Z,20.70
2022-10-29T18:20:49.410Z,23.90
2022-10-29T18:30:55.427Z,24.00
2022-10-29T18:41:01.638Z,25.40
2022-10-29T18:51:09.955Z,27.60
2022-10-29T19:01:19.026Z,24.10
2022-10-29T19:11:27.552Z,24.80
2022-10-29T19:21:34.925Z,28.60
2022-10-29T19:31:41.308Z,26.30
2022-10-29T19:41:46.989Z,27.80
2022-10-29T19:51:53.328Z,23.40
2022-10-29T20:01:59.336Z,27.10
2022-10-29T20:12:05.617Z,24.20
2022-10-29T20:22:11.283Z,29.90
2022-10-29T20:32:17.099Z,24.10
2022-10-29T20:42:24.257Z,26.10
2022-10-29T20:52:30.522Z,34.60
2022-10-29T21:02:36.271Z,38.40
2022-10-29T21:12:45.060Z,41.90
2022-10-29T21:22:50.782Z,50.60
2022-10-29T21:32:57.525Z,40.00
2022-10-29T21:43:03.242Z,35.30
2022-10-29T21:53:10.267Z,35.70
2022-10-29T22:03:15.877Z,39.60
2022-10-29T22:13:21.503Z,38.20
2022-10-29T22:23:27.129Z,55.90
2022-10-29T22:33:33.999Z,48.00
2022-10-29T22:43:40.210Z,45.30
2022-10-29T22:53:47.311Z,36.00
2022-10-29T23:03:53.693Z,42.40
2022-10-29T23:14:01.068Z,41.10
2022-10-29T23:24:07.988Z,36.70
2022-10-29T23:34:15.113Z,32.40
2022-10-29T23:44:20.830Z,32.70
2022-10-29T23:54:26.831Z,38.20
